Rock Point, Maryland
Current Conditions -  °F | °C
As of 10:57 PM on Saturday 20 Dec 2014 (Local Time) from K2W6 Reporting Station
Clear Clear  
Wind Chill: 28°   Ceiling: Unl
Heat Index: 28°   Visibility: 10mi
Dew Point: 23°   Wind: 0mph
Humidity: 80%   Direction: NA
Pressure: 30.32"   Gusts: NA
Location:  38.27°N, 76.84°W
Report Text: K2W6 210357Z AUTO 00000KT 10SM CLR M02/M05 A3032 RMK AO1
Loading
Personal Weather Stations






























Interactive Weather Map New forecast layout! Learn more

10-Day Weather Forecast

Advertisements
Track Severe Weather on mobile